Terminal Aerodrome Forecast
Issued by NWS

Home | Current Version | Previous Version | Text Only | Print | Product List | Glossary On
Versions: 1 2 3 4 5 6 7 8 9 10 11
000
FTUS46 KHNX 302320
TAFMER
TAF
KMER 302320Z 3100/3124 33012KT P6SM FEW150
     FM310200 31007KT P6SM SKC
     FM310900 VRB03KT P6SM SKC
     FM311900 33012KT P6SM SKC=

USA.gov is the U.S. government's official web portal to all federal, state and local government web resources and services.